sensor_id;sensor_type;location;lat;lon;timestamp;temperature;humidity
7606;DHT22;3844;53.360;9.738;2022-10-17T00:01:09;10.60;95.70
7606;DHT22;3844;53.360;9.738;2022-10-17T00:03:10;10.60;95.70
7606;DHT22;3844;53.360;9.738;2022-10-17T00:05:11;10.70;95.70
7606;DHT22;3844;53.360;9.738;2022-10-17T00:07:11;10.70;95.70
7606;DHT22;3844;53.360;9.738;2022-10-17T00:09:12;10.70;95.70
7606;DHT22;3844;53.360;9.738;2022-10-17T00:11:19;10.80;95.70
7606;DHT22;3844;53.360;9.738;2022-10-17T00:13:20;10.90;95.70
7606;DHT22;3844;53.360;9.738;2022-10-17T00:15:20;10.90;95.70
7606;DHT22;3844;53.360;9.738;2022-10-17T00:17:21;10.90;95.70
7606;DHT22;3844;53.360;9.738;2022-10-17T00:19:22;11.00;95.70
7606;DHT22;3844;53.360;9.738;2022-10-17T00:21:23;11.10;95.70
7606;DHT22;3844;53.360;9.738;2022-10-17T00:23:24;11.20;95.70
7606;DHT22;3844;53.360;9.738;2022-10-17T00:25:26;11.20;95.70
7606;DHT22;3844;53.360;9.738;2022-10-17T00:27:27;11.30;95.70
7606;DHT22;3844;53.360;9.738;2022-10-17T00:31:29;11.40;95.70
7606;DHT22;3844;53.360;9.738;2022-10-17T00:33:31;11.50;95.70
7606;DHT22;3844;53.360;9.738;2022-10-17T00:35:32;11.60;95.70
7606;DHT22;3844;53.360;9.738;2022-10-17T00:37:33;11.60;95.70
7606;DHT22;3844;53.360;9.738;2022-10-17T00:39:34;11.60;95.70
7606;DHT22;3844;53.360;9.738;2022-10-17T00:41:34;11.60;95.70
7606;DHT22;3844;53.360;9.738;2022-10-17T00:44:00;11.70;95.70
7606;DHT22;3844;53.360;9.738;2022-10-17T00:46:01;11.70;95.70
7606;DHT22;3844;53.360;9.738;2022-10-17T00:48:06;11.70;95.70
7606;DHT22;3844;53.360;9.738;2022-10-17T00:50:09;11.70;95.70
7606;DHT22;3844;53.360;9.738;2022-10-17T00:52:22;11.70;95.70
7606;DHT22;3844;53.360;9.738;2022-10-17T00:54:27;11.70;95.70
7606;DHT22;3844;53.360;9.738;2022-10-17T00:56:30;11.70;95.70
7606;DHT22;3844;53.360;9.738;2022-10-17T00:58:31;11.70;95.70
7606;DHT22;3844;53.360;9.738;2022-10-17T01:00:32;11.70;95.70
7606;DHT22;3844;53.360;9.738;2022-10-17T01:02:33;11.70;95.70
7606;DHT22;3844;53.360;9.738;2022-10-17T01:04:36;11.70;95.70
7606;DHT22;3844;53.360;9.738;2022-10-17T01:06:37;11.70;95.70
7606;DHT22;3844;53.360;9.738;2022-10-17T01:08:37;11.70;95.70
7606;DHT22;3844;53.360;9.738;2022-10-17T01:13:13;11.80;95.70
7606;DHT22;3844;53.360;9.738;2022-10-17T01:18:31;11.80;95.70
7606;DHT22;3844;53.360;9.738;2022-10-17T01:27:36;11.80;95.70
7606;DHT22;3844;53.360;9.738;2022-10-17T01:30:25;11.80;95.70
7606;DHT22;3844;53.360;9.738;2022-10-17T01:32:44;11.80;95.70
7606;DHT22;3844;53.360;9.738;2022-10-17T01:34:56;11.80;95.70
7606;DHT22;3844;53.360;9.738;2022-10-17T01:39:47;11.80;95.70
7606;DHT22;3844;53.360;9.738;2022-10-17T01:42:01;11.80;95.70
7606;DHT22;3844;53.360;9.738;2022-10-17T01:44:08;11.80;95.70
7606;DHT22;3844;53.360;9.738;2022-10-17T01:46:34;11.80;95.70
7606;DHT22;3844;53.360;9.738;2022-10-17T01:48:35;11.80;95.70
7606;DHT22;3844;53.360;9.738;2022-10-17T01:50:40;11.80;95.70
7606;DHT22;3844;53.360;9.738;2022-10-17T01:52:46;11.90;95.70
7606;DHT22;3844;53.360;9.738;2022-10-17T01:55:05;11.90;95.70
7606;DHT22;3844;53.360;9.738;2022-10-17T01:57:30;11.90;95.70
7606;DHT22;3844;53.360;9.738;2022-10-17T01:59:39;11.90;95.70
7606;DHT22;3844;53.360;9.738;2022-10-17T02:01:41;11.90;95.70
7606;DHT22;3844;53.360;9.738;2022-10-17T02:03:44;11.90;95.70
7606;DHT22;3844;53.360;9.738;2022-10-17T02:05:46;11.90;95.70
7606;DHT22;3844;53.360;9.738;2022-10-17T02:07:47;11.90;95.70
7606;DHT22;3844;53.360;9.738;2022-10-17T02:09:48;11.90;95.70
7606;DHT22;3844;53.360;9.738;2022-10-17T02:14:21;12.00;95.70
7606;DHT22;3844;53.360;9.738;2022-10-17T02:20:55;12.10;95.70
7606;DHT22;3844;53.360;9.738;2022-10-17T02:25:45;12.20;95.70
7606;DHT22;3844;53.360;9.738;2022-10-17T02:28:21;12.30;95.70
7606;DHT22;3844;53.360;9.738;2022-10-17T02:30:36;12.40;95.70
7606;DHT22;3844;53.360;9.738;2022-10-17T02:32:48;12.40;95.70
7606;DHT22;3844;53.360;9.738;2022-10-17T02:34:54;12.50;95.70
7606;DHT22;3844;53.360;9.738;2022-10-17T02:36:58;12.60;95.70
7606;DHT22;3844;53.360;9.738;2022-10-17T02:39:01;12.60;95.70
7606;DHT22;3844;53.360;9.738;2022-10-17T02:41:03;12.60;95.70
7606;DHT22;3844;53.360;9.738;2022-10-17T02:43:06;12.70;95.70
7606;DHT22;3844;53.360;9.738;2022-10-17T02:45:08;12.70;95.70
7606;DHT22;3844;53.360;9.738;2022-10-17T02:47:28;12.70;95.70
7606;DHT22;3844;53.360;9.738;2022-10-17T02:49:38;12.70;95.70
7606;DHT22;3844;53.360;9.738;2022-10-17T02:51:42;12.70;95.70
7606;DHT22;3844;53.360;9.738;2022-10-17T02:55:57;12.60;95.70
7606;DHT22;3844;53.360;9.738;2022-10-17T02:58:03;12.50;95.70
7606;DHT22;3844;53.360;9.738;2022-10-17T03:00:08;12.40;95.70
7606;DHT22;3844;53.360;9.738;2022-10-17T03:02:10;12.40;95.70
7606;DHT22;3844;53.360;9.738;2022-10-17T03:04:12;12.40;95.70
7606;DHT22;3844;53.360;9.738;2022-10-17T03:06:13;12.30;95.70
7606;DHT22;3844;53.360;9.738;2022-10-17T03:08:14;12.40;95.70
7606;DHT22;3844;53.360;9.738;2022-10-17T03:10:15;12.30;95.70
7606;DHT22;3844;53.360;9.738;2022-10-17T03:12:15;12.30;95.70
7606;DHT22;3844;53.360;9.738;2022-10-17T03:14:16;12.30;95.70
7606;DHT22;3844;53.360;9.738;2022-10-17T03:16:17;12.30;95.70
7606;DHT22;3844;53.360;9.738;2022-10-17T03:18:17;12.30;95.70
7606;DHT22;3844;53.360;9.738;2022-10-17T03:20:18;12.20;95.70
7606;DHT22;3844;53.360;9.738;2022-10-17T03:22:19;12.20;95.70
7606;DHT22;3844;53.360;9.738;2022-10-17T03:24:19;12.20;95.70
7606;DHT22;3844;53.360;9.738;2022-10-17T03:26:20;12.20;95.70
7606;DHT22;3844;53.360;9.738;2022-10-17T03:28:21;12.20;95.70
7606;DHT22;3844;53.360;9.738;2022-10-17T03:30:21;12.20;95.70
7606;DHT22;3844;53.360;9.738;2022-10-17T03:32:22;12.20;95.70
7606;DHT22;3844;53.360;9.738;2022-10-17T03:34:22;12.20;95.70
7606;DHT22;3844;53.360;9.738;2022-10-17T03:38:24;12.10;95.70
7606;DHT22;3844;53.360;9.738;2022-10-17T03:40:25;12.10;95.70
7606;DHT22;3844;53.360;9.738;2022-10-17T03:42:25;12.00;95.70
7606;DHT22;3844;53.360;9.738;2022-10-17T03:46:27;12.00;95.70
7606;DHT22;3844;53.360;9.738;2022-10-17T03:48:29;12.00;95.70
7606;DHT22;3844;53.360;9.738;2022-10-17T03:50:30;11.90;95.70
7606;DHT22;3844;53.360;9.738;2022-10-17T03:52:31;11.90;95.70
7606;DHT22;3844;53.360;9.738;2022-10-17T03:54:31;11.80;95.70
7606;DHT22;3844;53.360;9.738;2022-10-17T03:56:32;11.80;95.70
7606;DHT22;3844;53.360;9.738;2022-10-17T03:58:33;11.80;95.70
7606;DHT22;3844;53.360;9.738;2022-10-17T04:00:36;11.70;95.70
7606;DHT22;3844;53.360;9.738;2022-10-17T04:02:37;11.70;95.70
7606;DHT22;3844;53.360;9.738;2022-10-17T04:04:37;11.70;95.70
7606;DHT22;3844;53.360;9.738;2022-10-17T04:06:38;11.60;95.70
7606;DHT22;3844;53.360;9.738;2022-10-17T04:08:39;11.60;95.70
7606;DHT22;3844;53.360;9.738;2022-10-17T04:10:40;11.50;95.70
7606;DHT22;3844;53.360;9.738;2022-10-17T04:12:40;11.50;95.70
7606;DHT22;3844;53.360;9.738;2022-10-17T04:14:41;11.40;95.70
7606;DHT22;3844;53.360;9.738;2022-10-17T04:16:42;11.40;95.70
7606;DHT22;3844;53.360;9.738;2022-10-17T04:18:43;11.40;95.70
7606;DHT22;3844;53.360;9.738;2022-10-17T04:20:44;11.40;95.70
7606;DHT22;3844;53.360;9.738;2022-10-17T04:22:44;11.40;95.70
7606;DHT22;3844;53.360;9.738;2022-10-17T04:24:45;11.40;95.70
7606;DHT22;3844;53.360;9.738;2022-10-17T04:26:48;11.40;95.70
7606;DHT22;3844;53.360;9.738;2022-10-17T04:28:50;11.50;95.70
7606;DHT22;3844;53.360;9.738;2022-10-17T04:31:02;11.50;95.70
7606;DHT22;3844;53.360;9.738;2022-10-17T04:33:03;11.40;95.70
7606;DHT22;3844;53.360;9.738;2022-10-17T04:35:04;11.40;95.70
7606;DHT22;3844;53.360;9.738;2022-10-17T04:37:05;11.40;95.70
7606;DHT22;3844;53.360;9.738;2022-10-17T04:39:05;11.40;95.70
7606;DHT22;3844;53.360;9.738;2022-10-17T04:41:09;11.40;95.70
7606;DHT22;3844;53.360;9.738;2022-10-17T04:43:10;11.40;95.70
7606;DHT22;3844;53.360;9.738;2022-10-17T04:45:11;11.40;95.70
7606;DHT22;3844;53.360;9.738;2022-10-17T04:47:11;11.40;95.70
7606;DHT22;3844;53.360;9.738;2022-10-17T04:49:12;11.40;95.70
7606;DHT22;3844;53.360;9.738;2022-10-17T04:51:15;11.30;95.70
7606;DHT22;3844;53.360;9.738;2022-10-17T04:53:16;11.30;95.70
7606;DHT22;3844;53.360;9.738;2022-10-17T04:55:16;11.30;95.70
7606;DHT22;3844;53.360;9.738;2022-10-17T04:57:17;11.20;95.70
7606;DHT22;3844;53.360;9.738;2022-10-17T04:59:19;11.20;95.70
7606;DHT22;3844;53.360;9.738;2022-10-17T05:01:21;11.20;95.70
7606;DHT22;3844;53.360;9.738;2022-10-17T05:03:22;11.10;95.70
7606;DHT22;3844;53.360;9.738;2022-10-17T05:05:23;11.10;95.70
7606;DHT22;3844;53.360;9.738;2022-10-17T05:07:24;11.10;95.70
7606;DHT22;3844;53.360;9.738;2022-10-17T05:09:24;11.00;95.70
7606;DHT22;3844;53.360;9.738;2022-10-17T05:11:27;11.00;95.70
7606;DHT22;3844;53.360;9.738;2022-10-17T05:13:28;11.00;95.70
7606;DHT22;3844;53.360;9.738;2022-10-17T05:15:29;11.00;95.70
7606;DHT22;3844;53.360;9.738;2022-10-17T05:17:30;11.00;95.70
7606;DHT22;3844;53.360;9.738;2022-10-17T05:19:30;11.00;95.70
7606;DHT22;3844;53.360;9.738;2022-10-17T05:21:31;10.90;95.70
7606;DHT22;3844;53.360;9.738;2022-10-17T05:23:32;10.90;95.70
7606;DHT22;3844;53.360;9.738;2022-10-17T05:25:33;10.90;95.70
7606;DHT22;3844;53.360;9.738;2022-10-17T05:27:33;10.90;95.70
7606;DHT22;3844;53.360;9.738;2022-10-17T05:29:34;10.80;95.70
7606;DHT22;3844;53.360;9.738;2022-10-17T05:31:35;10.80;95.70
7606;DHT22;3844;53.360;9.738;2022-10-17T05:33:36;10.80;95.70
7606;DHT22;3844;53.360;9.738;2022-10-17T05:35:37;10.80;95.70
7606;DHT22;3844;53.360;9.738;2022-10-17T05:37:37;10.80;95.70
7606;DHT22;3844;53.360;9.738;2022-10-17T05:39:38;10.80;95.70
7606;DHT22;3844;53.360;9.738;2022-10-17T05:41:39;10.80;95.70
7606;DHT22;3844;53.360;9.738;2022-10-17T05:45:41;10.80;95.70
7606;DHT22;3844;53.360;9.738;2022-10-17T05:47:41;10.80;95.70
7606;DHT22;3844;53.360;9.738;2022-10-17T05:49:42;10.80;95.70
7606;DHT22;3844;53.360;9.738;2022-10-17T05:51:43;10.80;95.70
7606;DHT22;3844;53.360;9.738;2022-10-17T05:53:44;10.80;95.70
7606;DHT22;3844;53.360;9.738;2022-10-17T05:55:44;10.70;95.70
7606;DHT22;3844;53.360;9.738;2022-10-17T05:57:45;10.70;95.70
7606;DHT22;3844;53.360;9.738;2022-10-17T06:01:47;10.60;95.70
7606;DHT22;3844;53.360;9.738;2022-10-17T06:05:49;10.60;95.70
7606;DHT22;3844;53.360;9.738;2022-10-17T06:07:49;10.70;95.70
7606;DHT22;3844;53.360;9.738;2022-10-17T06:09:52;10.70;95.70
7606;DHT22;3844;53.360;9.738;2022-10-17T06:11:52;10.70;95.70
7606;DHT22;3844;53.360;9.738;2022-10-17T06:13:53;10.70;95.70
7606;DHT22;3844;53.360;9.738;2022-10-17T06:15:54;10.80;95.70
7606;DHT22;3844;53.360;9.738;2022-10-17T06:17:55;10.90;95.70
7606;DHT22;3844;53.360;9.738;2022-10-17T06:19:56;11.00;95.70
7606;DHT22;3844;53.360;9.738;2022-10-17T06:23:57;11.10;95.70
7606;DHT22;3844;53.360;9.738;2022-10-17T06:26:00;11.20;95.70
7606;DHT22;3844;53.360;9.738;2022-10-17T06:28:01;11.30;95.70
7606;DHT22;3844;53.360;9.738;2022-10-17T06:30:01;11.40;95.70
7606;DHT22;3844;53.360;9.738;2022-10-17T06:32:02;11.50;95.70
7606;DHT22;3844;53.360;9.738;2022-10-17T06:34:03;11.50;95.70
7606;DHT22;3844;53.360;9.738;2022-10-17T06:36:05;11.60;95.70
7606;DHT22;3844;53.360;9.738;2022-10-17T06:38:06;11.70;95.70
7606;DHT22;3844;53.360;9.738;2022-10-17T06:40:07;11.70;95.70
7606;DHT22;3844;53.360;9.738;2022-10-17T06:42:09;11.80;95.70
7606;DHT22;3844;53.360;9.738;2022-10-17T06:44:10;11.90;95.70
7606;DHT22;3844;53.360;9.738;2022-10-17T06:46:13;12.00;95.70
7606;DHT22;3844;53.360;9.738;2022-10-17T06:48:14;12.10;95.70
7606;DHT22;3844;53.360;9.738;2022-10-17T06:50:15;12.20;95.70
7606;DHT22;3844;53.360;9.738;2022-10-17T06:52:15;12.30;95.70
7606;DHT22;3844;53.360;9.738;2022-10-17T06:54:16;12.40;95.70
7606;DHT22;3844;53.360;9.738;2022-10-17T06:56:17;12.40;95.70
7606;DHT22;3844;53.360;9.738;2022-10-17T06:58:18;12.50;95.70
7606;DHT22;3844;53.360;9.738;2022-10-17T07:00:19;12.70;95.70
7606;DHT22;3844;53.360;9.738;2022-10-17T07:02:20;12.70;95.70
7606;DHT22;3844;53.360;9.738;2022-10-17T07:04:23;12.80;95.70
7606;DHT22;3844;53.360;9.738;2022-10-17T07:06:23;12.90;95.70
7606;DHT22;3844;53.360;9.738;2022-10-17T07:08:25;13.00;95.70
7606;DHT22;3844;53.360;9.738;2022-10-17T07:10:26;13.10;95.70
7606;DHT22;3844;53.360;9.738;2022-10-17T07:12:26;13.20;95.70
7606;DHT22;3844;53.360;9.738;2022-10-17T07:14:27;13.20;95.70
7606;DHT22;3844;53.360;9.738;2022-10-17T07:16:31;13.30;95.70
7606;DHT22;3844;53.360;9.738;2022-10-17T07:18:32;13.30;95.70
7606;DHT22;3844;53.360;9.738;2022-10-17T07:20:32;13.40;95.70
7606;DHT22;3844;53.360;9.738;2022-10-17T07:22:33;13.40;95.70
7606;DHT22;3844;53.360;9.738;2022-10-17T07:24:34;13.50;95.70
7606;DHT22;3844;53.360;9.738;2022-10-17T07:26:35;13.60;95.70
7606;DHT22;3844;53.360;9.738;2022-10-17T07:28:38;13.60;95.70
7606;DHT22;3844;53.360;9.738;2022-10-17T07:32:40;13.80;95.70
7606;DHT22;3844;53.360;9.738;2022-10-17T07:34:41;13.80;95.70
7606;DHT22;3844;53.360;9.738;2022-10-17T07:36:42;13.90;95.70
7606;DHT22;3844;53.360;9.738;2022-10-17T07:38:43;13.90;95.70
7606;DHT22;3844;53.360;9.738;2022-10-17T07:40:44;13.90;95.70
7606;DHT22;3844;53.360;9.738;2022-10-17T07:42:44;14.00;95.70
7606;DHT22;3844;53.360;9.738;2022-10-17T07:44:45;14.10;95.70
7606;DHT22;3844;53.360;9.738;2022-10-17T07:46:46;14.30;95.70
7606;DHT22;3844;53.360;9.738;2022-10-17T07:48:47;14.50;95.70
7606;DHT22;3844;53.360;9.738;2022-10-17T07:50:48;14.70;95.70
7606;DHT22;3844;53.360;9.738;2022-10-17T07:52:49;14.90;95.70
7606;DHT22;3844;53.360;9.738;2022-10-17T07:54:50;15.00;95.70
7606;DHT22;3844;53.360;9.738;2022-10-17T07:56:50;15.20;95.70
7606;DHT22;3844;53.360;9.738;2022-10-17T07:58:52;15.30;95.70
7606;DHT22;3844;53.360;9.738;2022-10-17T08:00:52;15.40;95.70
7606;DHT22;3844;53.360;9.738;2022-10-17T08:02:53;15.50;95.70
7606;DHT22;3844;53.360;9.738;2022-10-17T08:04:54;15.70;95.70
7606;DHT22;3844;53.360;9.738;2022-10-17T08:06:54;15.90;95.70
7606;DHT22;3844;53.360;9.738;2022-10-17T08:08:55;16.10;95.70
7606;DHT22;3844;53.360;9.738;2022-10-17T08:11:03;16.20;95.70
7606;DHT22;3844;53.360;9.738;2022-10-17T08:13:04;16.40;95.70
7606;DHT22;3844;53.360;9.738;2022-10-17T08:15:05;16.50;95.70
7606;DHT22;3844;53.360;9.738;2022-10-17T08:17:06;16.60;95.70
7606;DHT22;3844;53.360;9.738;2022-10-17T08:19:07;16.70;95.70
7606;DHT22;3844;53.360;9.738;2022-10-17T08:21:11;16.80;95.70
7606;DHT22;3844;53.360;9.738;2022-10-17T08:23:12;16.90;95.70
7606;DHT22;3844;53.360;9.738;2022-10-17T08:25:13;17.00;95.70
7606;DHT22;3844;53.360;9.738;2022-10-17T08:27:14;17.10;95.70
7606;DHT22;3844;53.360;9.738;2022-10-17T08:29:15;17.30;95.70
7606;DHT22;3844;53.360;9.738;2022-10-17T08:31:18;17.40;95.70
7606;DHT22;3844;53.360;9.738;2022-10-17T08:33:19;17.60;95.70
7606;DHT22;3844;53.360;9.738;2022-10-17T08:35:19;17.90;95.70
7606;DHT22;3844;53.360;9.738;2022-10-17T08:37:22;18.10;95.70
7606;DHT22;3844;53.360;9.738;2022-10-17T08:39:23;18.30;95.40
7606;DHT22;3844;53.360;9.738;2022-10-17T08:41:33;18.50;93.30
7606;DHT22;3844;53.360;9.738;2022-10-17T08:45:50;18.70;92.80
7606;DHT22;3844;53.360;9.738;2022-10-17T08:48:07;18.90;92.10
7606;DHT22;3844;53.360;9.738;2022-10-17T08:50:21;19.20;91.50
7606;DHT22;3844;53.360;9.738;2022-10-17T08:52:38;19.30;88.70
7606;DHT22;3844;53.360;9.738;2022-10-17T08:54:42;19.40;89.20
7606;DHT22;3844;53.360;9.738;2022-10-17T08:56:50;19.60;89.10
7606;DHT22;3844;53.360;9.738;2022-10-17T08:58:52;19.70;87.80
7606;DHT22;3844;53.360;9.738;2022-10-17T09:00:56;20.00;88.50
7606;DHT22;3844;53.360;9.738;2022-10-17T09:09:46;20.70;85.90
7606;DHT22;3844;53.360;9.738;2022-10-17T09:16:23;21.20;84.30
7606;DHT22;3844;53.360;9.738;2022-10-17T09:18:31;21.30;84.00
7606;DHT22;3844;53.360;9.738;2022-10-17T09:20:37;21.50;84.10
7606;DHT22;3844;53.360;9.738;2022-10-17T09:22:45;21.70;82.90
7606;DHT22;3844;53.360;9.738;2022-10-17T09:24:51;22.00;83.00
7606;DHT22;3844;53.360;9.738;2022-10-17T09:26:55;22.30;81.80
7606;DHT22;3844;53.360;9.738;2022-10-17T09:28:58;22.60;80.00
7606;DHT22;3844;53.360;9.738;2022-10-17T09:33:13;22.70;79.40
7606;DHT22;3844;53.360;9.738;2022-10-17T09:35:14;22.80;78.80
7606;DHT22;3844;53.360;9.738;2022-10-17T09:37:16;22.80;78.60
7606;DHT22;3844;53.360;9.738;2022-10-17T09:39:20;22.90;77.90
7606;DHT22;3844;53.360;9.738;2022-10-17T09:41:29;22.90;78.90
7606;DHT22;3844;53.360;9.738;2022-10-17T09:43:30;23.00;78.80
7606;DHT22;3844;53.360;9.738;2022-10-17T09:45:32;22.90;77.00
7606;DHT22;3844;53.360;9.738;2022-10-17T09:47:41;23.00;78.50
7606;DHT22;3844;53.360;9.738;2022-10-17T09:49:45;23.10;78.80
7606;DHT22;3844;53.360;9.738;2022-10-17T09:51:47;23.40;78.40
7606;DHT22;3844;53.360;9.738;2022-10-17T09:54:00;23.60;78.10
7606;DHT22;3844;53.360;9.738;2022-10-17T09:56:06;23.60;77.20
7606;DHT22;3844;53.360;9.738;2022-10-17T09:58:09;23.50;77.60
7606;DHT22;3844;53.360;9.738;2022-10-17T10:00:24;23.30;78.00
7606;DHT22;3844;53.360;9.738;2022-10-17T10:02:28;23.00;78.00
7606;DHT22;3844;53.360;9.738;2022-10-17T10:04:29;22.80;78.20
7606;DHT22;3844;53.360;9.738;2022-10-17T10:06:29;22.70;78.50
7606;DHT22;3844;53.360;9.738;2022-10-17T10:08:36;22.60;78.60
7606;DHT22;3844;53.360;9.738;2022-10-17T10:10:38;22.60;78.80
7606;DHT22;3844;53.360;9.738;2022-10-17T10:17:38;22.80;79.00
7606;DHT22;3844;53.360;9.738;2022-10-17T10:19:49;23.00;78.90
7606;DHT22;3844;53.360;9.738;2022-10-17T10:22:14;23.20;77.90
7606;DHT22;3844;53.360;9.738;2022-10-17T10:24:15;23.30;77.50
7606;DHT22;3844;53.360;9.738;2022-10-17T10:26:23;23.30;76.60
7606;DHT22;3844;53.360;9.738;2022-10-17T10:28:36;23.10;76.60
7606;DHT22;3844;53.360;9.738;2022-10-17T10:30:37;23.00;77.00
7606;DHT22;3844;53.360;9.738;2022-10-17T10:32:38;22.80;77.20
7606;DHT22;3844;53.360;9.738;2022-10-17T10:34:49;22.70;78.40
7606;DHT22;3844;53.360;9.738;2022-10-17T10:37:16;22.70;79.20
7606;DHT22;3844;53.360;9.738;2022-10-17T10:39:33;22.60;78.90
7606;DHT22;3844;53.360;9.738;2022-10-17T10:41:46;22.30;79.50
7606;DHT22;3844;53.360;9.738;2022-10-17T10:43:48;22.10;80.10
7606;DHT22;3844;53.360;9.738;2022-10-17T10:45:51;22.00;80.00
7606;DHT22;3844;53.360;9.738;2022-10-17T10:52:38;21.90;81.10
7606;DHT22;3844;53.360;9.738;2022-10-17T10:55:39;21.80;81.20
7606;DHT22;3844;53.360;9.738;2022-10-17T10:57:16;21.80;82.30
7606;DHT22;3844;53.360;9.738;2022-10-17T11:01:57;21.50;82.20
7606;DHT22;3844;53.360;9.738;2022-10-17T11:04:20;21.40;82.50
7606;DHT22;3844;53.360;9.738;2022-10-17T11:06:27;21.40;82.70
7606;DHT22;3844;53.360;9.738;2022-10-17T11:08:43;21.40;82.70
7606;DHT22;3844;53.360;9.738;2022-10-17T11:17:56;21.50;82.40
7606;DHT22;3844;53.360;9.738;2022-10-17T11:22:15;21.70;82.80
7606;DHT22;3844;53.360;9.738;2022-10-17T11:24:31;21.80;82.90
7606;DHT22;3844;53.360;9.738;2022-10-17T11:26:40;21.80;82.60
7606;DHT22;3844;53.360;9.738;2022-10-17T11:28:41;21.90;83.00
7606;DHT22;3844;53.360;9.738;2022-10-17T11:33:05;21.80;82.80
7606;DHT22;3844;53.360;9.738;2022-10-17T11:35:19;21.70;81.90
7606;DHT22;3844;53.360;9.738;2022-10-17T11:37:37;21.50;82.50
7606;DHT22;3844;53.360;9.738;2022-10-17T11:40:14;21.30;83.20
7606;DHT22;3844;53.360;9.738;2022-10-17T11:42:22;21.10;83.90
7606;DHT22;3844;53.360;9.738;2022-10-17T11:44:33;20.90;85.60
7606;DHT22;3844;53.360;9.738;2022-10-17T11:46:35;20.70;86.20
7606;DHT22;3844;53.360;9.738;2022-10-17T11:48:41;20.50;87.50
7606;DHT22;3844;53.360;9.738;2022-10-17T11:50:52;20.30;88.10
7606;DHT22;3844;53.360;9.738;2022-10-17T11:53:18;20.20;88.10
7606;DHT22;3844;53.360;9.738;2022-10-17T11:55:22;20.10;89.00
7606;DHT22;3844;53.360;9.738;2022-10-17T12:02:03;20.10;90.00
7606;DHT22;3844;53.360;9.738;2022-10-17T12:09:29;20.40;89.70
7606;DHT22;3844;53.360;9.738;2022-10-17T12:11:55;20.50;89.40
7606;DHT22;3844;53.360;9.738;2022-10-17T12:13:56;20.60;89.30
7606;DHT22;3844;53.360;9.738;2022-10-17T12:18:18;20.70;87.70
7606;DHT22;3844;53.360;9.738;2022-10-17T12:22:25;20.60;86.10
7606;DHT22;3844;53.360;9.738;2022-10-17T12:24:43;20.60;86.80
7606;DHT22;3844;53.360;9.738;2022-10-17T12:26:44;20.50;86.90
7606;DHT22;3844;53.360;9.738;2022-10-17T12:28:48;20.40;87.00
7606;DHT22;3844;53.360;9.738;2022-10-17T12:30:57;20.40;87.50
7606;DHT22;3844;53.360;9.738;2022-10-17T12:35:02;20.20;87.50
7606;DHT22;3844;53.360;9.738;2022-10-17T12:37:03;20.20;87.30
7606;DHT22;3844;53.360;9.738;2022-10-17T12:41:08;20.10;87.80
7606;DHT22;3844;53.360;9.738;2022-10-17T12:47:44;19.90;88.80
7606;DHT22;3844;53.360;9.738;2022-10-17T12:49:45;19.80;89.30
7606;DHT22;3844;53.360;9.738;2022-10-17T12:52:19;19.70;89.10
7606;DHT22;3844;53.360;9.738;2022-10-17T12:54:20;19.60;89.50
7606;DHT22;3844;53.360;9.738;2022-10-17T12:58:30;19.40;90.10
7606;DHT22;3844;53.360;9.738;2022-10-17T13:00:54;19.30;90.60
7606;DHT22;3844;53.360;9.738;2022-10-17T13:03:12;19.20;92.40
7606;DHT22;3844;53.360;9.738;2022-10-17T13:05:24;19.00;93.90
7606;DHT22;3844;53.360;9.738;2022-10-17T13:07:27;18.80;95.00
7606;DHT22;3844;53.360;9.738;2022-10-17T13:09:30;18.70;95.70
7606;DHT22;3844;53.360;9.738;2022-10-17T13:11:34;18.60;95.70
7606;DHT22;3844;53.360;9.738;2022-10-17T13:13:41;18.60;95.70
7606;DHT22;3844;53.360;9.738;2022-10-17T13:15:50;18.50;95.70
7606;DHT22;3844;53.360;9.738;2022-10-17T13:17:56;18.50;95.70
7606;DHT22;3844;53.360;9.738;2022-10-17T13:19:57;18.60;95.70
7606;DHT22;3844;53.360;9.738;2022-10-17T13:22:00;18.60;95.70
7606;DHT22;3844;53.360;9.738;2022-10-17T13:24:19;18.60;95.70
7606;DHT22;3844;53.360;9.738;2022-10-17T13:26:25;18.60;95.70
7606;DHT22;3844;53.360;9.738;2022-10-17T13:28:26;18.60;95.70
7606;DHT22;3844;53.360;9.738;2022-10-17T13:30:33;18.60;95.70
7606;DHT22;3844;53.360;9.738;2022-10-17T13:32:37;18.50;95.70
7606;DHT22;3844;53.360;9.738;2022-10-17T13:34:38;18.40;95.70
7606;DHT22;3844;53.360;9.738;2022-10-17T13:36:41;18.30;95.70
7606;DHT22;3844;53.360;9.738;2022-10-17T13:38:42;18.30;95.70
7606;DHT22;3844;53.360;9.738;2022-10-17T13:40:43;18.10;95.70
7606;DHT22;3844;53.360;9.738;2022-10-17T13:42:44;18.10;95.70
7606;DHT22;3844;53.360;9.738;2022-10-17T13:44:45;18.00;95.70
7606;DHT22;3844;53.360;9.738;2022-10-17T13:46:47;18.00;95.70
7606;DHT22;3844;53.360;9.738;2022-10-17T13:48:47;18.00;95.70
7606;DHT22;3844;53.360;9.738;2022-10-17T13:50:52;17.90;95.70
7606;DHT22;3844;53.360;9.738;2022-10-17T13:55:16;17.90;95.70
7606;DHT22;3844;53.360;9.738;2022-10-17T13:57:24;17.80;95.70
7606;DHT22;3844;53.360;9.738;2022-10-17T13:59:37;17.90;95.70
7606;DHT22;3844;53.360;9.738;2022-10-17T14:01:39;17.90;95.70
7606;DHT22;3844;53.360;9.738;2022-10-17T14:03:40;17.90;95.70
7606;DHT22;3844;53.360;9.738;2022-10-17T14:08:03;17.90;95.70
7606;DHT22;3844;53.360;9.738;2022-10-17T14:10:05;18.00;95.70
7606;DHT22;3844;53.360;9.738;2022-10-17T14:12:13;18.00;95.70
7606;DHT22;3844;53.360;9.738;2022-10-17T14:14:21;18.00;95.70
7606;DHT22;3844;53.360;9.738;2022-10-17T14:16:23;18.00;95.70
7606;DHT22;3844;53.360;9.738;2022-10-17T14:18:31;18.00;95.70
7606;DHT22;3844;53.360;9.738;2022-10-17T14:20:34;18.00;95.70
7606;DHT22;3844;53.360;9.738;2022-10-17T14:22:36;18.00;95.70
7606;DHT22;3844;53.360;9.738;2022-10-17T14:24:37;18.00;95.70
7606;DHT22;3844;53.360;9.738;2022-10-17T14:26:50;18.00;95.70
7606;DHT22;3844;53.360;9.738;2022-10-17T14:29:05;17.90;95.70
7606;DHT22;3844;53.360;9.738;2022-10-17T14:31:20;17.90;95.70
7606;DHT22;3844;53.360;9.738;2022-10-17T14:33:27;17.80;95.70
7606;DHT22;3844;53.360;9.738;2022-10-17T14:35:29;17.80;95.70
7606;DHT22;3844;53.360;9.738;2022-10-17T14:39:32;17.70;95.70
7606;DHT22;3844;53.360;9.738;2022-10-17T14:41:34;17.70;95.70
7606;DHT22;3844;53.360;9.738;2022-10-17T14:43:35;17.70;95.70
7606;DHT22;3844;53.360;9.738;2022-10-17T14:45:37;17.70;95.70
7606;DHT22;3844;53.360;9.738;2022-10-17T14:47:38;17.70;95.70
7606;DHT22;3844;53.360;9.738;2022-10-17T14:49:40;17.70;95.70
7606;DHT22;3844;53.360;9.738;2022-10-17T14:54:21;17.60;95.70
7606;DHT22;3844;53.360;9.738;2022-10-17T14:56:26;17.60;95.70
7606;DHT22;3844;53.360;9.738;2022-10-17T14:58:30;17.60;95.70
7606;DHT22;3844;53.360;9.738;2022-10-17T15:00:31;17.60;95.70
7606;DHT22;3844;53.360;9.738;2022-10-17T15:02:31;17.60;95.70
7606;DHT22;3844;53.360;9.738;2022-10-17T15:04:32;17.60;95.70
7606;DHT22;3844;53.360;9.738;2022-10-17T15:06:34;17.60;95.70
7606;DHT22;3844;53.360;9.738;2022-10-17T15:08:34;17.50;95.70
7606;DHT22;3844;53.360;9.738;2022-10-17T15:10:36;17.50;95.70
7606;DHT22;3844;53.360;9.738;2022-10-17T15:12:37;17.50;95.70
7606;DHT22;3844;53.360;9.738;2022-10-17T15:14:37;17.50;95.70
7606;DHT22;3844;53.360;9.738;2022-10-17T15:16:38;17.50;95.70
7606;DHT22;3844;53.360;9.738;2022-10-17T15:18:38;17.50;95.70
7606;DHT22;3844;53.360;9.738;2022-10-17T15:20:39;17.50;95.70
7606;DHT22;3844;53.360;9.738;2022-10-17T15:22:40;17.40;95.70
7606;DHT22;3844;53.360;9.738;2022-10-17T15:24:41;17.40;95.70
7606;DHT22;3844;53.360;9.738;2022-10-17T15:26:41;17.40;95.70
7606;DHT22;3844;53.360;9.738;2022-10-17T15:28:42;17.40;95.70